• Join FlightAware (Why Join?)
  • Login
  • US Flag 
06:21PM EDT


 

Airport Tracker/Info


-or-


 

Live Flight TrackerFlight Track Log ✈ UJT962 ✈ 03-May-2013 ✈ TNCM / SXM - KFXE

Flight Track Log - Related Links

Times and Time Zones

All times are in EDT time to prevent confusion due to time zone crossing. See the UJT962 flight status page for this flight to view local times or setup timezone preferences in your user account.

Time Position Orientation Groundspeed Altitude Reporting Facility
EDT Latitude Longitude Course Direction KTS MPH feet Rate Location/Type
09:13AM 17.9833 -63.1167 316° Northwest 280 322 4,900  Level San Juan Center
09:14AM 18.0333 -63.1667 316° Northwest 220 253 8,700 3,120 Climbing San Juan Center
09:15AM 18.0500 -63.2333 285° West 280 322 11,200 1,980 Climbing San Juan Center
09:16AM 18.0667 -63.3333 280° West 340 391 12,800 2,160 Climbing San Juan Center
09:17AM 18.0833 -63.4333 280° West 360 414 15,600 2,400 Climbing San Juan Center
09:18AM 18.1000 -63.5500 279° West 370 426 17,700 1,980 Climbing San Juan Center
09:19AM 18.1167 -63.6500 280° West 380 437 19,700 2,100 Climbing San Juan Center
09:20AM 18.1333 -63.7667 279° West 380 437 21,900 1,920 Climbing San Juan Center
09:21AM 18.1833 -63.8667 298° West 390 449 23,600 1,560 Climbing San Juan Center
09:22AM 18.2167 -63.9833 287° West 400 460 25,100 1,380 Climbing San Juan Center
09:23AM 18.2667 -64.0833 298° West 410 472 26,500 1,320 Climbing San Juan Center
09:24AM 18.3167 -64.2000 294° West 420 483 27,800 1,200 Climbing San Juan Center
09:25AM 18.3500 -64.3167 287° West 430 495 29,000 1,200 Climbing San Juan Center
09:26AM 18.4000 -64.4333 294° West 430 495 30,300 960 Climbing San Juan Center
09:27AM 18.4500 -64.5500 294° West 440 506 31,000 1,140 Climbing San Juan Center
09:28AM 18.4833 -64.6667 287° West 430 495 32,600 1,560 Climbing San Juan Center
09:29AM 18.5333 -64.7833 294° West 420 483 34,200 1,500 Climbing San Juan Center
09:30AM 18.5833 -64.9000 294° West 420 483 35,700 1,320 Climbing San Juan Center
09:31AM 18.6167 -65.0167 287° West 420 483 36,900 1,320 Climbing San Juan Center
09:32AM 18.6667 -65.1333 294° West 400 460 38,400 1,440 Climbing San Juan Center
09:33AM 18.7000 -65.2333 289° West 390 449 39,900 1,200 Climbing San Juan Center
09:34AM 18.7500 -65.3500 294° West 390 449 40,900 900 Climbing San Juan Center
09:35AM 18.7833 -65.4333 293° West 390 449 41,800 1,020 Climbing San Juan Center
09:36AM 18.8167 -65.5500 287° West 370 426 43,000 540 Climbing San Juan Center
09:37AM 18.8667 -65.6500 298° West 380 437 43,000  Level San Juan Center
09:38AM 18.9000 -65.7500 289° West 380 437 43,000  Level San Juan Center
09:39AM 18.9333 -65.8667 287° West 380 437 43,000  Level San Juan Center
09:40AM 18.9833 -65.9667 298° West 370 426 43,000  Level San Juan Center
09:41AM 19.0167 -66.0667 289° West 370 426 43,000  Level San Juan Center
09:42AM 19.0500 -66.1667 289° West 370 426 43,000  Level San Juan Center
09:43AM 19.0833 -66.2667 289° West 380 437 43,000  Level San Juan Center
09:44AM 19.1167 -66.3667 289° West 380 437 43,000  Level San Juan Center
09:45AM 19.1667 -66.4833 294° West 390 449 43,000  Level San Juan Center
09:46AM 19.1833 -66.5500 285° West 360 414 43,000  Level San Juan Center
09:47AM 19.2333 -66.6667 294° West 370 426 43,000  Level San Juan Center
09:48AM 19.2667 -66.7667 289° West 380 437 43,000  Level San Juan Center
09:49AM 19.3000 -66.8667 289° West 380 437 43,000  Level San Juan Center
09:50AM 19.3333 -66.9667 289° West 380 437 43,000  Level San Juan Center
09:51AM 19.3833 -67.1000 292° West 370 426 43,000  Level San Juan Center
09:52AM 19.4167 -67.2000 289° West 370 426 43,000  Level San Juan Center
09:53AM 19.4500 -67.3000 289° West 370 426 43,000  Level San Juan Center
09:54AM 19.5000 -67.4000 298° West 370 426 43,000  Level San Juan Center
09:55AM 19.5333 -67.5000 289° West 370 426 43,000  Level San Juan Center
09:56AM 19.5667 -67.6000 289° West 370 426 43,000  Level San Juan Center
09:57AM 19.6000 -67.7000 290° West 370 426 43,000  Level San Juan Center
09:58AM 19.6500 -67.8000 298° West 370 426 43,000  Level San Juan Center
09:59AM 19.6833 -67.9167 287° West 370 426 43,000  Level San Juan Center
10:00AM 19.7167 -68.0167 290° West 370 426 43,000  Level San Juan Center
10:01AM 19.7500 -68.1167 290° West 370 426 43,000  Level San Juan Center
10:02AM 19.7833 -68.2167 290° West 370 426 43,000  Level San Juan Center
10:03AM 19.8167 -68.3167 290° West 370 426 43,000  Level San Juan Center
10:04AM 19.8667 -68.4167 298° West 370 426 43,000  Level San Juan Center
10:05AM 19.8983 -68.5411 285° West 442 509 43,000  Level Miami Center
10:06AM 19.9353 -68.6467 290° West 407 468 43,000  Level Miami Center
10:07AM 19.9819 -68.7453 297° West 389 448 43,000  Level Miami Center
10:08AM 20.0411 -68.8408 303° West 379 436 43,000  Level Miami Center
10:09AM 20.1017 -68.9300 306° West 379 436 43,000  Level Miami Center
10:10AM 20.1628 -69.0233 305° West 379 436 43,100 300 Climbing Miami Center
10:11AM 20.2214 -69.1150 304° West 379 436 43,600 480 Climbing Miami Center
10:12AM 20.2800 -69.2042 305° West 379 436 44,100 480 Climbing Miami Center
10:13AM 20.3344 -69.2939 303° West 379 436 44,600 420 Climbing Miami Center
10:14AM 20.3928 -69.3858 304° West 374 430 45,000 180 Climbing Miami Center
10:15AM 20.4511 -69.4731 306° West 374 430 45,000  Level Miami Center
10:16AM 20.5097 -69.5650 304° West 374 430 45,000  Level Miami Center
10:17AM 20.5703 -69.6592 304° West 379 436 45,000  Level Miami Center
10:18AM 20.6289 -69.7533 304° West 384 442 45,000  Level Miami Center
10:19AM 20.6892 -69.8433 306° West 384 442 45,000  Level Miami Center
10:20AM 20.7433 -69.9336 303° West 378 435 45,000  Level Miami Center
10:21AM 20.8014 -70.0236 305° West 378 435 45,000  Level Miami Center
10:22AM 20.8594 -70.1139 305° West 378 435 45,000  Level Miami Center
10:23AM 20.9178 -70.2064 304° West 378 435 45,000  Level Miami Center
10:24AM 20.9758 -70.2989 304° West 383 441 45,000  Level Miami Center
10:25AM 21.0339 -70.3917 304° West 378 435 45,000  Level Miami Center
10:26AM 21.0942 -70.4864 304° West 383 441 45,000  Level Miami Center
10:27AM 21.1522 -70.5769 305° West 383 441 45,000  Level Miami Center
10:28AM 21.2103 -70.6700 304° West 383 441 45,000  Level Miami Center
10:29AM 21.2703 -70.7628 305° West 383 441 45,000  Level Miami Center
10:30AM 21.3281 -70.8581 303° West 383 441 45,000  Level Miami Center
10:31AM 21.3858 -70.9469 305° West 383 441 45,000  Level Miami Center
10:32AM 21.4478 -71.0422 305° West 389 448 45,000  Level Miami Center
10:33AM 21.5144 -71.1528 303° West 389 448 45,000  Level Miami Center
10:34AM 21.5769 -71.2572 303° West 451 519 45,000  Level Miami Center
10:35AM 21.6344 -71.3531 303° West 415 478 45,000  Level Miami Center
10:36AM 21.6922 -71.4489 303° West 393 452 45,000  Level Miami Center
10:37AM 21.7497 -71.5447 303° West 387 445 45,000  Level Miami Center
10:38AM 21.8094 -71.6383 305° West 381 438 45,000  Level Miami Center
10:39AM 21.8669 -71.7367 302° West 381 438 45,000  Level Miami Center
10:40AM 21.9264 -71.8306 304° West 381 438 45,000  Level Miami Center
10:41AM 21.9858 -71.9292 303° West 381 438 45,000  Level Miami Center
10:42AM 22.0453 -72.0253 304° West 381 438 45,000  Level Miami Center
10:43AM 22.0961 -72.1108 303° West 381 438 45,000  Level Miami Center
10:44AM 22.1575 -72.2094 304° West 386 444 45,000  Level Miami Center
10:45AM 22.2169 -72.3106 302° West 386 444 45,000  Level Miami Center
10:46AM 22.2764 -72.4092 303° West 392 451 45,000  Level Miami Center
10:47AM 22.3356 -72.5061 303° West 392 451 45,000  Level Miami Center
10:48AM 22.3967 -72.6050 304° West 392 451 45,000  Level Miami Center
10:49AM 22.4536 -72.6997 303° West 392 451 45,000  Level Miami Center
10:50AM 22.5128 -72.7989 303° West 392 451 45,000  Level Miami Center
10:51AM 22.5739 -72.9006 303° West 392 451 45,000  Level Miami Center
10:52AM 22.6286 -73.0000 301° West 392 451 45,000  Level Miami Center
10:53AM 22.6914 -73.0928 306° West 392 451 45,000  Level Miami Center
10:54AM 22.7547 -73.1989 303° West 387 445 45,000  Level Miami Center
10:55AM 22.8072 -73.2944 301° West 380 437 45,000  Level Miami Center
10:56AM 22.8636 -73.3897 303° West 380 437 45,000  Level Miami Center
10:57AM 22.9158 -73.4831 301° West 380 437 45,000  Level Miami Center
10:58AM 22.9764 -73.5761 305° West 380 437 45,000  Level Miami Center
10:59AM 23.0286 -73.6742 300° West 380 437 45,000  Level Miami Center
11:00AM 23.0892 -73.7675 305° West 380 437 45,000  Level Miami Center
11:01AM 23.1456 -73.8678 301° West 380 437 45,000  Level Miami Center
11:02AM 23.2036 -73.9636 303° West 380 437 45,000  Level Miami Center
11:03AM 23.2578 -74.0572 302° West 380 437 45,000  Level Miami Center
11:04AM 23.3158 -74.1578 302° West 380 437 45,000  Level Miami Center
11:05AM 23.3742 -74.2561 303° West 380 437 45,000  Level Miami Center
11:06AM 23.4300 -74.3544 302° West 385 443 45,000  Level Miami Center
11:07AM 23.4881 -74.4531 303° West 385 443 45,000  Level Miami Center
11:08AM 23.5483 -74.5517 304° West 385 443 45,000  Level Miami Center
11:09AM 23.6039 -74.6503 302° West 385 443 45,000  Level Miami Center
11:10AM 23.6619 -74.7492 303° West 385 443 45,000  Level Miami Center
11:11AM 23.7197 -74.8481 303° West 385 443 45,000  Level Miami Center
11:12AM 23.7775 -74.9494 302° West 385 443 45,000  Level Miami Center
11:13AM 23.8331 -75.0483 302° West 385 443 45,000  Level Miami Center
11:14AM 23.8906 -75.1475 302° West 385 443 45,000  Level Miami Center
11:15AM 23.9461 -75.2469 301° West 385 443 45,000  Level Miami Center
11:16AM 24.0033 -75.3439 303° West 385 443 45,000  Level Miami Center
11:17AM 24.0586 -75.4411 302° West 385 443 45,000  Level Miami Center
11:18AM 24.1139 -75.5406 301° West 385 443 45,000  Level Miami Center
11:19AM 24.1692 -75.6381 302° West 385 443 45,000  Level Miami Center
11:20AM 24.2242 -75.7356 302° West 385 443 45,000  Level Miami Center
11:21AM 24.2814 -75.8328 303° West 385 443 45,000  Level Miami Center
11:22AM 24.3364 -75.9350 301° West 380 437 45,000  Level Miami Center
11:23AM 24.3914 -76.0328 302° West 380 437 45,000  Level Miami Center
11:24AM 24.4483 -76.1328 302° West 386 444 45,000  Level Miami Center
11:25AM 24.5031 -76.2353 300° West 381 438 45,000 -360 Level Miami Center
11:26AM 24.5578 -76.3286 303° West 378 435 44,300 -960 Descending Miami Center
11:27AM 24.6167 -76.4292 303° West 383 441 43,100 -1,200 Descending Miami Center
11:28AM 24.6692 -76.5250 301° West 378 435 41,900 -1,260 Descending Miami Center
11:29AM 24.7217 -76.6208 301° West 373 429 40,600 -1,440 Descending Miami Center
11:30AM 24.7719 -76.7214 299° West 373 429 39,100 -1,500 Descending Miami Center
11:31AM 24.8283 -76.8175 303° West 378 435 37,600 -1,500 Descending Miami Center
11:32AM 24.8828 -76.9161 301° West 383 441 36,200 -840 Descending Miami Center
11:33AM 24.9392 -77.0147 302° West 383 441 36,000 -120 Descending Miami Center
11:34AM 24.9933 -77.1156 301° West 383 441 36,000  Level Miami Center
11:35AM 25.0517 -77.2144 303° West 383 441 36,000  Level Miami Center
11:36AM 25.1097 -77.3156 302° West 383 441 36,000  Level Miami Center
11:37AM 25.1681 -77.4192 302° West 388 447 36,000  Level Miami Center
11:38AM 25.2178 -77.5158 300° West 388 447 36,000  Level Miami Center
11:39AM 25.2694 -77.6172 299° West 388 447 36,000  Level Miami Center
11:40AM 25.3253 -77.7208 301° West 388 447 36,000  Level Miami Center
11:41AM 25.3792 -77.8225 300° West 388 447 36,000  Level Miami Center
11:42AM 25.4347 -77.9242 301° West 388 447 36,000  Level Miami Center
11:43AM 25.4906 -78.0283 301° West 388 447 36,000  Level Miami Center
11:44AM 25.5461 -78.1325 301° West 388 447 36,000 -720 Level Miami Center
11:45AM 25.5994 -78.2392 299° West 388 447 34,600 -1,500 Descending Miami Center
11:46AM 25.6253 -78.3614 283° West 411 473 33,100 -2,040 Descending Miami Center
11:47AM 25.6492 -78.4886 282° West 405 466 30,600 -2,700 Descending Miami Center
11:48AM 25.6706 -78.6225 280° West 424 488 27,700 -2,880 Descending Miami Center
11:49AM 25.6961 -78.7497 283° West 432 497 24,900 -1,860 Descending Miami Center
11:50AM 25.6986 -78.8883 271° West 427 491 24,000 -1,800 Descending Miami Center
11:51AM 25.7447 -79.0111 293° West 414 476 21,300 -3,120 Descending Miami Center
11:52AM 25.7639 -79.1361 280° West 414 476 17,800 -2,880 Descending Miami Center
11:53AM 25.7811 -79.2289 282° West 409 471 15,600 -2,880 Descending Miami Center
11:54AM 25.8019 -79.3583 280° West 370 426 12,100 -3,000 Descending Miami Center
11:55AM 25.8172 -79.4464 281° West 346 398 9,600 -2,700 Descending Miami Center
11:56AM 25.8361 -79.5508 281° West 322 371 6,800 -2,340 Descending Miami Center
11:57AM 25.8514 -79.6319 282° West 300 345 5,000 -900 Descending Miami Center
11:58AM 25.8856 -79.7067 297° West 276 318 5,000 -300 Level Miami Center
11:59AM 25.9392 -79.7447 327° Northwest 230 265 4,400 -720 Descending Miami Center
12:00PM 26.0067 -79.7119 24° Northeast 199 229 3,600 -720 Descending Miami Center
12:01PM 26.0836 -79.7158 357° North 238 274 3,000 -300 Descending Miami Center
12:02PM 26.1547 -79.7178 359° North 253 291 3,000  Level Miami Center
12:03PM 26.2150 -79.7306 349° North 242 278 3,000  Level Miami Center
12:04PM 26.2156 -79.8094 270° West 208 239 3,000 -360 Level Miami Center
12:05PM 26.2164 -79.8742 271° West 211 243 2,300 -540 Descending Miami Center
12:06PM 26.2172 -79.9344 271° West 183 211 2,000 -240 Descending Miami Center
12:07PM 26.2139 -79.9878 266° West 169 194 1,900 -300 Descending Miami Center
12:08PM 26.2108 -80.0408 266° West 168 193 1,500 -240 Descending Miami Center
12:09PM 26.2033 -80.0917 261° West 160 184 1,500 -420 Level Miami Center
12:10PM 26.2003 -80.1331 265° West 121 139 700 -840 Descending Miami Center
12:12PM 26.1833 -80.1667 267° West  Level FlightAware Approximate
12:19PM 26.1973 -80.1707 267° West  Level Estimated